Time;durP1;ratioP1;P1;durP2;ratioP2;P2;SDS_P1;SDS_P2;PMS_P1;PMS_P2;Temp;Humidity;BMP_temperature;BMP_pressure;BME280_temperature;BME280_humidity;BME280_pressure;Samples;Min_cycle;Max_cycle;Signal;HPM_P1;HPM_P2
2023/09/22 00:02:04;;;;;;;1.30;0.80;;;;;17.00;97209.00;;;;5053704;28;20135;-63
2023/09/22 00:04:31;;;;;;;2.40;1.27;;;;;17.00;97220.00;;;;5053142;28;20055;-63
2023/09/22 00:06:58;;;;;;;1.30;0.93;;;;;17.00;97238.00;;;;5053761;28;20131;-64
2023/09/22 00:09:24;;;;;;;2.10;1.00;;;;;17.10;97243.00;;;;5053542;28;20045;-62
2023/09/22 00:11:51;;;;;;;4.82;1.38;;;;;17.10;97243.00;;;;5053902;28;20083;-63
2023/09/22 00:14:18;;;;;;;4.63;1.10;;;;;17.00;97237.00;;;;5053464;28;20055;-63
2023/09/22 00:16:44;;;;;;;1.98;1.42;;;;;17.00;97233.00;;;;5053545;28;20494;-63
2023/09/22 00:19:11;;;;;;;2.10;0.90;;;;;17.00;97244.00;;;;5053483;28;20045;-64
2023/09/22 00:21:38;;;;;;;2.47;1.10;;;;;17.00;97245.00;;;;5053420;28;20045;-64
2023/09/22 00:24:05;;;;;;;3.17;1.10;;;;;17.00;97240.00;;;;5052596;28;20052;-63
2023/09/22 00:26:32;;;;;;;2.33;1.10;;;;;17.00;97234.00;;;;5053078;28;20041;-64
2023/09/22 00:28:58;;;;;;;2.60;1.27;;;;;17.00;97244.00;;;;5051924;28;20202;-64
2023/09/22 00:31:25;;;;;;;2.17;1.10;;;;;16.90;97243.00;;;;5051966;28;20059;-64
2023/09/22 00:33:53;;;;;;;1.98;1.13;;;;;16.90;97239.00;;;;5034892;28;20045;-64
2023/09/22 00:36:20;;;;;;;1.88;0.90;;;;;16.80;97241.00;;;;5052905;28;20501;-64
2023/09/22 00:38:47;;;;;;;5.10;1.10;;;;;16.80;97238.00;;;;5051711;28;20048;-64
2023/09/22 00:41:14;;;;;;;3.50;1.10;;;;;16.80;97230.00;;;;5052894;28;20041;-64
2023/09/22 00:43:42;;;;;;;1.75;0.90;;;;;16.80;97226.00;;;;5052347;28;20093;-64
2023/09/22 00:46:12;;;;;;;1.15;0.93;;;;;16.80;97226.00;;;;5051489;28;20140;-64
2023/09/22 00:48:40;;;;;;;4.07;1.23;;;;;16.80;97229.00;;;;5035047;28;20564;-64
2023/09/22 00:51:06;;;;;;;2.47;1.02;;;;;16.80;97244.00;;;;5051504;28;20504;-64
2023/09/22 00:53:37;;;;;;;2.80;1.10;;;;;16.70;97253.00;;;;5050769;28;20049;-64
2023/09/22 00:56:05;;;;;;;2.20;1.00;;;;;16.70;97253.00;;;;5034983;28;20148;-64
2023/09/22 00:58:32;;;;;;;3.38;1.02;;;;;16.70;97248.00;;;;5052767;28;20127;-65
2023/09/22 01:00:58;;;;;;;1.42;1.02;;;;;16.70;97254.00;;;;5052477;28;20199;-65
2023/09/22 01:03:25;;;;;;;2.72;1.00;;;;;16.70;97245.00;;;;5050892;28;20569;-65
2023/09/22 01:05:52;;;;;;;1.80;1.00;;;;;16.70;97241.00;;;;5052358;28;20045;-65
2023/09/22 01:08:20;;;;;;;2.40;1.10;;;;;16.60;97235.00;;;;5052510;28;20048;-65
2023/09/22 01:10:46;;;;;;;1.75;1.30;;;;;16.60;97229.00;;;;5052120;28;20056;-65
2023/09/22 01:13:13;;;;;;;4.55;1.70;;;;;16.60;97237.00;;;;5052493;28;20094;-65
2023/09/22 01:15:41;;;;;;;3.10;0.90;;;;;16.50;97219.00;;;;5050383;28;20694;-65
2023/09/22 01:18:10;;;;;;;1.95;0.95;;;;;16.50;97232.00;;;;5051042;28;20462;-65
2023/09/22 01:20:43;;;;;;;2.38;1.27;;;;;16.50;97247.00;;;;5052288;28;20486;-65
2023/09/22 01:23:12;;;;;;;1.80;1.23;;;;;16.50;97238.00;;;;5050938;28;20049;-65
2023/09/22 01:25:39;;;;;;;1.95;1.25;;;;;16.40;97228.00;;;;5051399;28;20098;-65
2023/09/22 01:28:07;;;;;;;2.17;1.40;;;;;16.40;97219.00;;;;5052325;28;20563;-65
2023/09/22 01:30:34;;;;;;;1.73;1.17;;;;;16.40;97219.00;;;;5052032;28;20037;-64
2023/09/22 01:33:02;;;;;;;1.33;1.23;;;;;16.30;97222.00;;;;5050960;28;20055;-65
2023/09/22 01:35:33;;;;;;;2.03;1.40;;;;;16.30;97234.00;;;;5051622;28;20063;-64
2023/09/22 01:38:10;;;;;;;1.50;1.40;;;;;16.30;97231.00;;;;5051066;28;20107;-65
2023/09/22 01:40:39;;;;;;;4.68;1.30;;;;;16.30;97231.00;;;;5051177;28;20406;-65
2023/09/22 01:43:06;;;;;;;3.80;1.02;;;;;16.30;97227.00;;;;5051765;28;20484;-65
2023/09/22 01:45:33;;;;;;;1.60;1.10;;;;;16.20;97234.00;;;;5051778;28;20133;-65
2023/09/22 01:47:59;;;;;;;3.92;1.30;;;;;16.20;97236.00;;;;5052075;28;20056;-64
2023/09/22 01:50:26;;;;;;;3.35;1.40;;;;;16.20;97223.00;;;;5053587;28;20036;-65
2023/09/22 01:52:53;;;;;;;1.33;1.23;;;;;16.20;97221.00;;;;5051614;28;20040;-65
2023/09/22 01:55:23;;;;;;;2.45;1.60;;;;;16.20;97208.00;;;;5052329;28;20110;-65
2023/09/22 01:57:50;;;;;;;2.08;1.42;;;;;16.20;97205.00;;;;5051875;28;20049;-64
2023/09/22 02:00:18;;;;;;;1.38;1.15;;;;;16.20;97197.00;;;;5051196;28;20132;-65
2023/09/22 02:02:46;;;;;;;1.20;1.10;;;;;16.20;97197.00;;;;5053258;28;20525;-64
2023/09/22 02:05:16;;;;;;;5.30;2.08;;;;;16.20;97193.00;;;;5051442;28;20049;-65
2023/09/22 02:07:43;;;;;;;1.50;1.40;;;;;16.30;97194.00;;;;5051990;28;20040;-65
2023/09/22 02:10:10;;;;;;;3.00;1.50;;;;;16.30;97175.00;;;;5051333;28;20553;-64
2023/09/22 02:12:37;;;;;;;2.40;1.15;;;;;16.30;97177.00;;;;5052049;28;20041;-64
2023/09/22 02:15:07;;;;;;;3.20;1.60;;;;;16.30;97180.00;;;;5051331;28;20084;-65
2023/09/22 02:17:34;;;;;;;3.20;1.60;;;;;16.30;97192.00;;;;5049993;28;20450;-65
2023/09/22 02:20:05;;;;;;;5.15;1.88;;;;;16.30;97196.00;;;;5050348;28;20044;-66
2023/09/22 02:22:32;;;;;;;3.05;1.80;;;;;16.30;97196.00;;;;5053937;28;20528;-65
2023/09/22 02:24:59;;;;;;;2.80;1.50;;;;;16.30;97191.00;;;;5055322;28;20049;-65
2023/09/22 02:27:26;;;;;;;2.17;1.40;;;;;16.30;97201.00;;;;5054664;28;20041;-64
2023/09/22 02:29:53;;;;;;;4.45;1.52;;;;;16.20;97211.00;;;;5055916;28;20047;-64
2023/09/22 02:32:19;;;;;;;1.73;1.05;;;;;16.20;97188.00;;;;5054576;28;20140;-64
2023/09/22 02:34:46;;;;;;;2.50;1.52;;;;;16.20;97182.00;;;;5054822;28;20040;-64
2023/09/22 02:37:12;;;;;;;2.22;1.17;;;;;16.10;97183.00;;;;5054064;28;20136;-64
2023/09/22 02:39:39;;;;;;;1.42;1.33;;;;;16.10;97180.00;;;;5055331;28;20132;-64
2023/09/22 02:42:06;;;;;;;2.78;1.25;;;;;16.20;97166.00;;;;5055345;28;20045;-63
2023/09/22 02:44:33;;;;;;;2.22;1.10;;;;;16.20;97171.00;;;;5054693;28;20044;-63
2023/09/22 02:47:00;;;;;;;3.00;1.10;;;;;16.20;97189.00;;;;5053539;28;20059;-64
2023/09/22 02:49:29;;;;;;;1.45;1.23;;;;;16.20;97199.00;;;;5053994;28;20045;-64
2023/09/22 02:51:56;;;;;;;3.35;1.48;;;;;16.20;97188.00;;;;5053865;28;20052;-64
2023/09/22 02:54:23;;;;;;;2.55;1.40;;;;;16.20;97213.00;;;;5053274;28;20083;-65
2023/09/22 02:56:50;;;;;;;1.00;0.90;;;;;16.30;97220.00;;;;5053632;28;20052;-64
2023/09/22 02:59:17;;;;;;;3.13;1.15;;;;;16.30;97237.00;;;;5055238;28;20091;-64
2023/09/22 03:01:44;;;;;;;1.52;1.00;;;;;16.30;97235.00;;;;5054841;28;20137;-64
2023/09/22 03:04:11;;;;;;;3.03;1.42;;;;;16.30;97206.00;;;;5054225;28;20048;-65
2023/09/22 03:06:38;;;;;;;1.20;0.77;;;;;16.30;97193.00;;;;5054656;28;20071;-64
2023/09/22 03:09:07;;;;;;;1.45;0.90;;;;;16.30;97190.00;;;;5054869;28;20052;-64
2023/09/22 03:11:34;;;;;;;2.70;1.23;;;;;16.30;97183.00;;;;5053538;28;20037;-64
2023/09/22 03:14:03;;;;;;;1.23;1.10;;;;;16.30;97180.00;;;;5054180;28;20156;-64
2023/09/22 03:16:30;;;;;;;1.50;0.93;;;;;16.40;97187.00;;;;5053217;28;20425;-63
2023/09/22 03:18:57;;;;;;;2.90;1.20;;;;;16.40;97179.00;;;;5053473;28;20677;-64
2023/09/22 03:21:25;;;;;;;3.08;1.20;;;;;16.40;97185.00;;;;5053830;28;20118;-63
2023/09/22 03:23:53;;;;;;;2.10;1.00;;;;;16.50;97182.00;;;;5052841;28;20041;-64
2023/09/22 03:26:21;;;;;;;3.05;1.00;;;;;16.50;97177.00;;;;5053206;28;20056;-64
2023/09/22 03:28:48;;;;;;;1.20;0.93;;;;;16.60;97181.00;;;;5053340;28;20144;-64
2023/09/22 03:31:16;;;;;;;1.80;1.10;;;;;16.50;97184.00;;;;5053531;28;20521;-64
2023/09/22 03:33:46;;;;;;;2.65;1.20;;;;;16.60;97197.00;;;;5053876;28;20037;-64
2023/09/22 03:36:13;;;;;;;2.30;1.48;;;;;16.60;97215.00;;;;5054146;28;20047;-65
2023/09/22 03:38:41;;;;;;;2.90;0.80;;;;;16.60;97234.00;;;;5052825;28;20056;-64
2023/09/22 03:41:09;;;;;;;3.13;1.27;;;;;16.60;97241.00;;;;5036575;28;20043;-64
2023/09/22 03:43:36;;;;;;;3.50;1.30;;;;;16.60;97257.00;;;;5052543;28;20056;-64
2023/09/22 03:46:03;;;;;;;1.50;0.98;;;;;16.50;97263.00;;;;5052662;28;20064;-64
2023/09/22 03:48:30;;;;;;;2.42;1.20;;;;;16.50;97258.00;;;;5054046;28;20048;-64
2023/09/22 03:50:56;;;;;;;2.55;1.15;;;;;16.50;97248.00;;;;5053635;28;20037;-65
2023/09/22 03:53:23;;;;;;;3.58;1.10;;;;;16.60;97259.00;;;;5053891;28;20095;-65
2023/09/22 03:55:50;;;;;;;2.72;1.20;;;;;16.60;97259.00;;;;5052563;28;20049;-64
2023/09/22 03:58:17;;;;;;;2.92;0.98;;;;;16.60;97253.00;;;;5052659;28;20056;-65
2023/09/22 04:00:44;;;;;;;2.05;0.90;;;;;16.60;97231.00;;;;5052322;28;20478;-64
2023/09/22 04:03:11;;;;;;;2.15;1.17;;;;;16.50;97226.00;;;;5052568;28;20053;-64
2023/09/22 04:05:39;;;;;;;3.10;1.27;;;;;16.50;97226.00;;;;5053307;28;20044;-64
2023/09/22 04:08:06;;;;;;;2.47;1.17;;;;;16.50;97219.00;;;;5052509;28;20046;-65
2023/09/22 04:10:33;;;;;;;4.22;1.30;;;;;16.50;97224.00;;;;5052357;28;20486;-65
2023/09/22 04:12:59;;;;;;;2.65;1.25;;;;;16.50;97232.00;;;;5053462;28;20605;-64
2023/09/22 04:15:26;;;;;;;5.90;1.23;;;;;16.60;97234.00;;;;5051470;28;20084;-65
2023/09/22 04:17:53;;;;;;;2.22;1.05;;;;;16.60;97243.00;;;;5053543;28;20102;-65
2023/09/22 04:20:29;;;;;;;1.35;1.13;;;;;16.60;97244.00;;;;5053758;28;20048;-65
2023/09/22 04:22:59;;;;;;;5.43;1.00;;;;;16.60;97245.00;;;;5052152;28;20049;-65
2023/09/22 04:25:34;;;;;;;1.75;1.10;;;;;16.70;97252.00;;;;5052315;28;20585;-65
2023/09/22 04:28:17;;;;;;;2.80;1.10;;;;;16.70;97259.00;;;;5054835;28;20493;-65
2023/09/22 04:30:44;;;;;;;1.08;0.82;;;;;16.70;97263.00;;;;5053627;28;20116;-65
2023/09/22 04:33:11;;;;;;;5.60;1.00;;;;;16.60;97254.00;;;;5053565;28;20077;-65
2023/09/22 04:35:40;;;;;;;1.38;1.05;;;;;16.60;97260.00;;;;5053273;28;20098;-65
2023/09/22 04:38:06;;;;;;;1.27;1.00;;;;;16.60;97249.00;;;;5053731;28;20461;-65
2023/09/22 04:40:39;;;;;;;2.22;0.90;;;;;16.60;97254.00;;;;5053577;28;20064;-65
2023/09/22 04:43:09;;;;;;;2.70;1.05;;;;;16.60;97247.00;;;;5053695;28;20378;-65
2023/09/22 04:45:40;;;;;;;1.45;0.90;;;;;16.60;97253.00;;;;5052275;28;20041;-65
2023/09/22 04:48:08;;;;;;;1.98;0.93;;;;;16.50;97252.00;;;;5053267;28;20045;-65
2023/09/22 04:50:36;;;;;;;2.45;0.80;;;;;16.50;97247.00;;;;5053136;28;20061;-65
2023/09/22 04:53:06;;;;;;;1.17;0.70;;;;;16.50;97256.00;;;;5052834;28;20069;-64
2023/09/22 04:55:35;;;;;;;2.25;0.90;;;;;16.50;97243.00;;;;5052377;28;20543;-65
2023/09/22 04:58:04;;;;;;;2.17;1.02;;;;;16.60;97240.00;;;;5051640;28;20076;-65
2023/09/22 05:00:33;;;;;;;2.30;0.90;;;;;16.50;97242.00;;;;5052605;28;20416;-65
2023/09/22 05:03:01;;;;;;;0.85;0.82;;;;;16.50;97243.00;;;;5052436;28;20072;-65
2023/09/22 05:05:28;;;;;;;1.92;0.82;;;;;16.50;97237.00;;;;5052044;28;20048;-65
2023/09/22 05:07:55;;;;;;;1.58;1.10;;;;;16.40;97259.00;;;;5052415;28;20041;-65
2023/09/22 05:10:22;;;;;;;2.30;1.00;;;;;16.40;97268.00;;;;5052306;28;20051;-65
2023/09/22 05:12:51;;;;;;;3.22;1.10;;;;;16.40;97278.00;;;;5052529;28;20037;-65
2023/09/22 05:15:19;;;;;;;2.35;0.88;;;;;16.50;97282.00;;;;5051816;28;20045;-65
2023/09/22 05:17:46;;;;;;;1.55;1.00;;;;;16.50;97277.00;;;;5051997;28;20155;-65
2023/09/22 05:20:13;;;;;;;1.75;0.70;;;;;16.50;97272.00;;;;5051277;28;20512;-65
2023/09/22 05:22:40;;;;;;;3.10;1.30;;;;;16.50;97292.00;;;;5052163;28;20486;-65
2023/09/22 05:25:07;;;;;;;1.25;0.90;;;;;16.50;97285.00;;;;5051825;28;20553;-64
2023/09/22 05:27:35;;;;;;;1.80;1.50;;;;;16.60;97288.00;;;;5052310;28;20053;-65
2023/09/22 05:30:06;;;;;;;2.05;1.20;;;;;16.60;97297.00;;;;5052248;28;20119;-65
2023/09/22 05:32:33;;;;;;;2.25;1.23;;;;;16.60;97302.00;;;;5052290;28;20048;-65
2023/09/22 05:35:00;;;;;;;1.80;1.33;;;;;16.60;97303.00;;;;5051697;28;20667;-66
2023/09/22 05:37:27;;;;;;;1.20;1.10;;;;;16.60;97302.00;;;;5052320;28;20047;-63
2023/09/22 05:39:53;;;;;;;0.88;0.85;;;;;16.60;97289.00;;;;5051240;28;20084;-63
2023/09/22 05:42:20;;;;;;;1.83;1.08;;;;;16.60;97300.00;;;;5052288;28;20465;-63
2023/09/22 05:44:47;;;;;;;2.30;1.75;;;;;16.60;97296.00;;;;5051472;28;20053;-63
2023/09/22 05:47:13;;;;;;;1.98;1.15;;;;;16.60;97300.00;;;;5051844;28;20131;-63
2023/09/22 05:49:40;;;;;;;3.17;1.75;;;;;16.60;97313.00;;;;5052001;28;20044;-63
2023/09/22 05:52:07;;;;;;;2.83;1.63;;;;;16.60;97329.00;;;;5051915;28;20112;-63
2023/09/22 05:54:34;;;;;;;2.53;1.10;;;;;16.60;97351.00;;;;5051256;28;20445;-63
2023/09/22 05:57:01;;;;;;;4.57;1.52;;;;;16.70;97361.00;;;;5054426;28;20123;-63
2023/09/22 05:59:28;;;;;;;2.40;1.58;;;;;16.70;97348.00;;;;5056269;28;20045;-63
2023/09/22 06:01:57;;;;;;;3.97;1.80;;;;;16.60;97346.00;;;;5056180;28;20126;-63
2023/09/22 06:04:24;;;;;;;3.15;1.73;;;;;16.60;97344.00;;;;5055636;28;20065;-63
2023/09/22 06:06:53;;;;;;;1.35;1.02;;;;;16.60;97341.00;;;;5056011;28;20048;-63
2023/09/22 06:09:21;;;;;;;2.17;1.00;;;;;16.70;97340.00;;;;5056501;28;20415;-63
2023/09/22 06:11:49;;;;;;;3.70;2.20;;;;;16.70;97342.00;;;;5056178;28;20458;-63
2023/09/22 06:14:15;;;;;;;6.55;4.43;;;;;16.70;97345.00;;;;5054286;28;20053;-63
2023/09/22 06:16:42;;;;;;;3.15;2.15;;;;;16.70;97353.00;;;;5055785;28;20124;-63
2023/09/22 06:19:10;;;;;;;4.38;1.40;;;;;16.70;97349.00;;;;5055974;28;20041;-63
2023/09/22 06:21:38;;;;;;;2.03;0.80;;;;;16.70;97348.00;;;;5055113;28;20040;-63
2023/09/22 06:24:06;;;;;;;2.00;1.23;;;;;16.70;97344.00;;;;5055488;28;20045;-63
2023/09/22 06:26:33;;;;;;;9.02;6.63;;;;;16.60;97354.00;;;;5055905;28;20675;-63
2023/09/22 06:29:00;;;;;;;4.85;1.88;;;;;16.70;97354.00;;;;5055739;28;20047;-63
2023/09/22 06:31:26;;;;;;;5.13;1.42;;;;;16.70;97357.00;;;;5055593;28;20037;-63
2023/09/22 06:33:53;;;;;;;2.75;0.90;;;;;16.70;97357.00;;;;5055253;28;20040;-63
2023/09/22 06:36:20;;;;;;;3.20;2.30;;;;;16.80;97355.00;;;;5055908;28;20124;-63
2023/09/22 06:38:46;;;;;;;2.75;1.60;;;;;16.80;97360.00;;;;5055753;28;20052;-64
2023/09/22 06:41:20;;;;;;;4.55;1.48;;;;;16.80;97359.00;;;;5055787;28;20583;-64
2023/09/22 06:43:46;;;;;;;1.65;1.42;;;;;16.80;97371.00;;;;5055369;28;20095;-64
2023/09/22 06:46:23;;;;;;;2.05;1.30;;;;;16.80;97371.00;;;;5053906;28;20052;-65
2023/09/22 06:48:50;;;;;;;5.05;1.33;;;;;16.80;97358.00;;;;5056155;28;20052;-64
2023/09/22 06:51:18;;;;;;;4.55;1.42;;;;;16.90;97365.00;;;;5055763;28;20064;-64
2023/09/22 06:53:46;;;;;;;2.17;1.20;;;;;16.90;97362.00;;;;5054617;28;20052;-64
2023/09/22 06:56:13;;;;;;;1.77;1.30;;;;;16.90;97361.00;;;;5054387;28;20050;-64
2023/09/22 06:58:40;;;;;;;4.63;1.45;;;;;17.00;97371.00;;;;5055636;28;20044;-64
2023/09/22 07:01:12;;;;;;;1.33;1.08;;;;;17.10;97375.00;;;;5054755;28;20037;-64
2023/09/22 07:03:40;;;;;;;2.95;1.60;;;;;17.20;97365.00;;;;5055599;28;20041;-65
2023/09/22 07:06:09;;;;;;;2.35;1.20;;;;;17.20;97374.00;;;;5053962;28;20098;-64
2023/09/22 07:08:36;;;;;;;1.75;1.23;;;;;17.20;97374.00;;;;5054902;28;20045;-65
2023/09/22 07:11:05;;;;;;;4.10;1.60;;;;;17.30;97375.00;;;;5053609;28;20087;-64
2023/09/22 07:13:32;;;;;;;1.65;1.10;;;;;17.30;97374.00;;;;5054392;28;20045;-65
2023/09/22 07:15:58;;;;;;;1.08;0.98;;;;;17.30;97368.00;;;;5054373;28;20123;-65
2023/09/22 07:18:26;;;;;;;6.55;1.20;;;;;17.40;97371.00;;;;5054966;28;20430;-65
2023/09/22 07:20:54;;;;;;;2.15;1.27;;;;;17.50;97373.00;;;;5053478;28;20049;-64
2023/09/22 07:23:21;;;;;;;1.70;1.30;;;;;17.60;97383.00;;;;5054947;28;20049;-64
2023/09/22 07:26:20;;;;;;;2.67;1.20;;;;;17.70;97371.00;;;;5054047;28;20044;-64
2023/09/22 07:28:47;;;;;;;2.50;0.90;;;;;17.80;97380.00;;;;5031551;28;20049;-64
2023/09/22 07:31:15;;;;;;;1.38;0.90;;;;;17.90;97393.00;;;;5054150;28;20076;-65
2023/09/22 07:33:45;;;;;;;1.20;0.98;;;;;18.00;97401.00;;;;5053811;28;20045;-64
2023/09/22 07:36:13;;;;;;;2.03;0.95;;;;;18.00;97400.00;;;;5054439;28;20041;-65
2023/09/22 07:38:39;;;;;;;3.45;1.02;;;;;18.00;97403.00;;;;5054671;28;20110;-65
2023/09/22 07:41:06;;;;;;;1.67;0.93;;;;;17.90;97407.00;;;;5054500;28;20067;-65
2023/09/22 07:43:33;;;;;;;1.65;0.70;;;;;17.90;97398.00;;;;5052502;28;20051;-64
2023/09/22 07:46:04;;;;;;;1.30;1.00;;;;;17.90;97401.00;;;;5054075;28;20045;-64
2023/09/22 07:48:31;;;;;;;1.75;1.05;;;;;17.90;97407.00;;;;5054296;28;20037;-64
2023/09/22 07:51:00;;;;;;;3.25;1.00;;;;;18.20;97395.00;;;;5054160;28;20074;-64
2023/09/22 07:53:26;;;;;;;1.25;1.00;;;;;18.40;97398.00;;;;5052398;28;20493;-65
2023/09/22 07:55:59;;;;;;;1.48;0.63;;;;;18.60;97400.00;;;;5053792;28;20048;-63
2023/09/22 07:58:27;;;;;;;1.23;0.73;;;;;18.70;97406.00;;;;5054743;28;20045;-64
2023/09/22 08:00:54;;;;;;;3.13;1.17;;;;;18.60;97414.00;;;;5055183;28;20508;-64
2023/09/22 08:03:21;;;;;;;4.10;1.23;;;;;18.50;97418.00;;;;5052631;28;20033;-64
2023/09/22 08:05:51;;;;;;;3.10;1.20;;;;;18.30;97430.00;;;;5053186;28;20041;-64
2023/09/22 08:08:17;;;;;;;3.05;1.00;;;;;18.20;97433.00;;;;5054019;28;20591;-65
2023/09/22 08:10:44;;;;;;;1.95;0.65;;;;;18.20;97428.00;;;;5055177;28;20671;-63
2023/09/22 08:13:11;;;;;;;3.70;1.00;;;;;18.10;97436.00;;;;5054670;28;20095;-64
2023/09/22 08:15:39;;;;;;;3.78;0.98;;;;;18.10;97440.00;;;;5053078;28;20048;-65
2023/09/22 08:18:06;;;;;;;1.65;0.73;;;;;18.10;97440.00;;;;5053353;28;20040;-65
2023/09/22 08:20:33;;;;;;;2.60;1.10;;;;;18.00;97436.00;;;;5052795;28;20051;-64
2023/09/22 08:23:00;;;;;;;3.75;1.10;;;;;18.10;97437.00;;;;5053322;28;20075;-65
2023/09/22 08:25:27;;;;;;;4.75;1.35;;;;;18.20;97437.00;;;;5052758;28;20556;-64
2023/09/22 08:27:56;;;;;;;3.38;1.60;;;;;18.10;97438.00;;;;5052527;28;20040;-64
2023/09/22 08:30:24;;;;;;;2.53;1.33;;;;;18.10;97441.00;;;;5053778;28;20421;-65
2023/09/22 08:32:51;;;;;;;3.70;1.27;;;;;18.10;97443.00;;;;5053951;28;20036;-64
2023/09/22 08:35:18;;;;;;;2.47;1.13;;;;;18.20;97433.00;;;;5053203;28;20049;-65
2023/09/22 08:37:45;;;;;;;2.95;1.15;;;;;18.30;97437.00;;;;5053789;28;20140;-65
2023/09/22 08:40:16;;;;;;;5.65;1.70;;;;;18.40;97435.00;;;;5054848;28;20045;-66
2023/09/22 08:42:48;;;;;;;3.97;1.17;;;;;18.60;97425.00;;;;5052815;28;20048;-66
2023/09/22 08:45:15;;;;;;;2.15;0.90;;;;;18.80;97427.00;;;;5053247;28;20045;-65
2023/09/22 08:47:45;;;;;;;4.28;1.30;;;;;18.80;97423.00;;;;5053575;28;20045;-65
2023/09/22 08:50:13;;;;;;;3.38;1.52;;;;;18.70;97436.00;;;;5053912;28;20053;-65
2023/09/22 08:52:46;;;;;;;4.30;1.50;;;;;18.70;97426.00;;;;5053894;28;20045;-65
2023/09/22 08:55:16;;;;;;;2.63;1.40;;;;;18.70;97429.00;;;;5053439;28;20473;-65
2023/09/22 08:57:47;;;;;;;2.75;1.02;;;;;18.70;97439.00;;;;5052267;28;20059;-65
2023/09/22 09:00:19;;;;;;;3.00;1.27;;;;;18.90;97441.00;;;;5053400;28;20045;-65
2023/09/22 09:02:47;;;;;;;3.40;1.05;;;;;19.00;97444.00;;;;5053351;28;20123;-66
2023/09/22 09:05:24;;;;;;;3.13;1.30;;;;;19.20;97435.00;;;;5052927;28;20565;-65
2023/09/22 09:07:52;;;;;;;4.03;1.45;;;;;19.30;97436.00;;;;5052974;28;20072;-65
2023/09/22 09:10:30;;;;;;;3.28;1.48;;;;;19.40;97444.00;;;;5052942;28;20051;-65
2023/09/22 09:13:01;;;;;;;5.68;1.48;;;;;19.50;97433.00;;;;5052622;28;20520;-64
2023/09/22 09:15:30;;;;;;;6.18;1.63;;;;;19.40;97442.00;;;;5052237;28;20128;-65
2023/09/22 09:18:05;;;;;;;4.30;1.30;;;;;19.40;97445.00;;;;5052617;28;20045;-65
2023/09/22 09:20:34;;;;;;;2.53;1.10;;;;;19.40;97446.00;;;;5052605;28;20051;-65
2023/09/22 09:23:19;;;;;;;7.32;2.45;;;;;19.50;97440.00;;;;5053483;28;20079;-65
2023/09/22 09:25:50;;;;;;;5.13;1.65;;;;;19.50;97447.00;;;;5052338;28;20053;-65
2023/09/22 09:28:18;;;;;;;1.77;1.23;;;;;19.40;97446.00;;;;5052022;28;20048;-65
2023/09/22 09:30:50;;;;;;;3.38;1.30;;;;;19.40;97445.00;;;;5052240;28;20178;-65
2023/09/22 09:33:26;;;;;;;3.75;1.10;;;;;19.60;97444.00;;;;5052291;28;20037;-65
2023/09/22 09:35:55;;;;;;;7.75;1.40;;;;;19.70;97447.00;;;;5052177;28;20141;-63
2023/09/22 09:38:27;;;;;;;3.13;1.05;;;;;19.70;97445.00;;;;5052144;28;20128;-64
2023/09/22 09:40:56;;;;;;;4.13;1.75;;;;;19.60;97438.00;;;;5051932;28;20075;-65
2023/09/22 09:43:23;;;;;;;4.32;1.40;;;;;19.70;97431.00;;;;5051088;28;20049;-64
2023/09/22 09:45:59;;;;;;;5.32;1.58;;;;;19.70;97436.00;;;;5051718;28;20059;-64
2023/09/22 09:48:27;;;;;;;4.97;1.35;;;;;19.80;97438.00;;;;5051831;28;20041;-66
2023/09/22 09:50:57;;;;;;;5.20;1.92;;;;;19.80;97436.00;;;;5052728;28;20041;-65
2023/09/22 09:53:36;;;;;;;4.78;1.42;;;;;19.90;97430.00;;;;5052411;28;20041;-65
2023/09/22 09:56:05;;;;;;;3.42;1.20;;;;;19.90;97435.00;;;;5052205;28;20076;-64
2023/09/22 09:58:34;;;;;;;4.25;1.40;;;;;19.70;97440.00;;;;5052180;28;20080;-63
2023/09/22 10:01:05;;;;;;;4.82;2.00;;;;;19.50;97442.00;;;;5052183;28;20132;-64
2023/09/22 10:03:33;;;;;;;4.28;1.60;;;;;19.50;97435.00;;;;5052084;28;20490;-64
2023/09/22 10:06:04;;;;;;;3.58;1.55;;;;;19.60;97426.00;;;;5052288;28;20060;-64
2023/09/22 10:08:30;;;;;;;4.85;1.60;;;;;19.80;97429.00;;;;5051503;28;20045;-64
2023/09/22 10:10:59;;;;;;;4.00;1.20;;;;;20.00;97433.00;;;;5052189;28;20057;-64
2023/09/22 10:13:27;;;;;;;4.65;1.13;;;;;20.20;97424.00;;;;5051568;28;20047;-65
2023/09/22 10:15:59;;;;;;;2.42;1.27;;;;;20.50;97427.00;;;;5051962;28;20041;-64
2023/09/22 10:18:48;;;;;;;3.47;1.45;;;;;20.70;97419.00;;;;5050832;28;20052;-64
2023/09/22 10:21:38;;;;;;;2.63;1.42;;;;;20.80;97426.00;;;;5052370;28;20047;-64
2023/09/22 10:24:28;;;;;;;4.88;1.45;;;;;21.00;97428.00;;;;5050529;28;20147;-65
2023/09/22 10:26:54;;;;;;;3.38;1.70;;;;;21.00;97422.00;;;;5052444;28;20114;-65
2023/09/22 10:29:38;;;;;;;5.43;2.10;;;;;21.30;97433.00;;;;5052650;28;20124;-65
2023/09/22 10:32:21;;;;;;;6.25;2.25;;;;;21.60;97429.00;;;;5052310;28;20041;-65
2023/09/22 10:34:55;;;;;;;6.18;1.50;;;;;21.70;97432.00;;;;5051689;28;20049;-65
2023/09/22 10:37:27;;;;;;;2.83;1.10;;;;;21.90;97426.00;;;;5051403;28;20390;-65
2023/09/22 10:40:08;;;;;;;3.95;1.65;;;;;21.90;97432.00;;;;5052189;28;20056;-65
2023/09/22 10:42:39;;;;;;;2.85;1.85;;;;;21.70;97435.00;;;;5052693;28;20516;-65
2023/09/22 10:45:06;;;;;;;3.42;1.50;;;;;21.40;97444.00;;;;5055468;28;20049;-65
2023/09/22 10:47:44;;;;;;;3.25;1.30;;;;;21.30;97441.00;;;;5054526;28;20144;-66
2023/09/22 10:50:30;;;;;;;5.15;2.85;;;;;21.30;97428.00;;;;5055979;28;20073;-65
2023/09/22 10:53:02;;;;;;;1.80;1.20;;;;;21.50;97436.00;;;;5055564;28;20045;-64
2023/09/22 10:55:37;;;;;;;2.90;1.00;;;;;21.40;97433.00;;;;5054795;28;20049;-64
2023/09/22 10:58:18;;;;;;;2.85;1.30;;;;;21.30;97434.00;;;;5055988;28;20430;-63
2023/09/22 11:00:59;;;;;;;4.75;2.63;;;;;21.20;97431.00;;;;5056280;28;20051;-64
2023/09/22 11:03:27;;;;;;;4.05;2.10;;;;;21.20;97419.00;;;;5054687;28;20123;-64
2023/09/22 11:05:58;;;;;;;3.90;1.70;;;;;21.30;97409.00;;;;5054698;28;20049;-65
2023/09/22 11:08:25;;;;;;;2.97;1.40;;;;;21.40;97419.00;;;;5054859;28;20045;-64
2023/09/22 11:10:53;;;;;;;5.20;1.80;;;;;21.40;97419.00;;;;5055025;28;20094;-64
2023/09/22 11:13:23;;;;;;;7.13;1.23;;;;;21.40;97415.00;;;;5054560;28;20490;-64
2023/09/22 11:15:59;;;;;;;2.78;1.55;;;;;21.40;97416.00;;;;5054106;28;20103;-64
2023/09/22 11:18:29;;;;;;;3.38;1.13;;;;;21.40;97415.00;;;;5054610;28;20051;-64
2023/09/22 11:21:05;;;;;;;2.97;1.30;;;;;21.40;97416.00;;;;5054558;28;20051;-64
2023/09/22 11:23:35;;;;;;;3.83;1.80;;;;;21.50;97420.00;;;;5053911;28;20040;-64
2023/09/22 11:26:13;;;;;;;3.67;1.63;;;;;21.50;97424.00;;;;5054446;28;20521;-65
2023/09/22 11:28:44;;;;;;;5.15;1.70;;;;;21.50;97416.00;;;;5054664;28;20048;-64
2023/09/22 11:31:20;;;;;;;2.15;1.00;;;;;21.60;97416.00;;;;5055099;28;20072;-64
2023/09/22 11:34:01;;;;;;;4.80;2.28;;;;;21.80;97423.00;;;;5054090;28;20049;-64
2023/09/22 11:36:28;;;;;;;2.85;1.00;;;;;21.80;97418.00;;;;5054873;28;20052;-64
2023/09/22 11:38:55;;;;;;;2.20;1.40;;;;;21.90;97413.00;;;;5054568;28;20049;-64
2023/09/22 11:41:22;;;;;;;0.95;0.68;;;;;22.20;97409.00;;;;5055318;28;20504;-65
2023/09/22 11:43:51;;;;;;;4.13;1.13;;;;;22.50;97409.00;;;;5054493;28;20062;-65
2023/09/22 11:46:22;;;;;;;2.90;0.90;;;;;22.70;97409.00;;;;5055276;28;20052;-65
2023/09/22 11:48:59;;;;;;;7.05;1.20;;;;;22.90;97406.00;;;;5054821;28;20075;-65
2023/09/22 11:51:45;;;;;;;3.28;1.48;;;;;22.90;97421.00;;;;5055293;28;20045;-65
2023/09/22 11:54:13;;;;;;;4.68;1.20;;;;;22.80;97414.00;;;;5052862;28;20041;-65
2023/09/22 11:56:43;;;;;;;4.22;1.10;;;;;22.60;97423.00;;;;5054939;28;20514;-63
2023/09/22 11:59:12;;;;;;;3.17;1.23;;;;;22.20;97412.00;;;;5054599;28;20049;-63
2023/09/22 12:01:40;;;;;;;4.10;1.20;;;;;22.10;97408.00;;;;5054212;28;20422;-64
2023/09/22 12:04:09;;;;;;;2.55;0.98;;;;;22.20;97404.00;;;;5053468;28;20041;-65
2023/09/22 12:06:42;;;;;;;1.50;0.70;;;;;22.00;97406.00;;;;5054486;28;20140;-66
2023/09/22 12:09:10;;;;;;;;;;;;;22.00;97402.00;;;;5053497;28;20492;-64
2023/09/22 12:11:38;;;;;;;4.80;2.60;;;;;22.00;97401.00;;;;5054469;28;19920;-64
2023/09/22 12:14:05;;;;;;;2.40;0.90;;;;;22.20;97393.00;;;;5053539;28;20099;-64
2023/09/22 12:16:33;;;;;;;0.93;0.80;;;;;22.30;97400.00;;;;5053484;28;20049;-65
2023/09/22 12:18:59;;;;;;;3.72;1.00;;;;;22.50;97402.00;;;;5053676;28;20048;-65
2023/09/22 12:21:28;;;;;;;1.15;0.68;;;;;22.70;97400.00;;;;5053517;28;20494;-64
2023/09/22 12:23:54;;;;;;;3.90;1.50;;;;;22.70;97407.00;;;;5053756;28;20067;-65
2023/09/22 12:26:22;;;;;;;2.28;0.98;;;;;22.80;97408.00;;;;5057567;28;20075;-64
2023/09/22 12:28:49;;;;;;;2.03;0.80;;;;;22.70;97406.00;;;;5056274;28;20045;-65